createdAt,value
2022-10-25T00:00:11.604Z,0.00
2022-10-25T00:01:11.657Z,0.00
2022-10-25T00:02:11.802Z,0.00
2022-10-25T00:03:11.607Z,0.00
2022-10-25T00:04:11.695Z,0.00
2022-10-25T00:05:11.603Z,0.00
2022-10-25T00:06:11.599Z,0.00
2022-10-25T00:07:11.598Z,0.00
2022-10-25T00:08:11.598Z,0.00
2022-10-25T00:09:11.599Z,0.00
2022-10-25T00:10:11.593Z,0.00
2022-10-25T00:11:11.600Z,0.00
2022-10-25T00:12:11.599Z,0.00
2022-10-25T00:13:11.611Z,0.00
2022-10-25T00:14:11.593Z,0.00
2022-10-25T00:15:11.598Z,0.00
2022-10-25T00:16:11.599Z,0.00
2022-10-25T00:17:11.600Z,0.00
2022-10-25T00:18:11.620Z,0.00
2022-10-25T00:19:11.594Z,0.00
2022-10-25T00:20:11.598Z,0.00
2022-10-25T00:21:11.598Z,0.00
2022-10-25T00:22:11.599Z,0.00
2022-10-25T00:23:11.597Z,0.00
2022-10-25T00:24:11.595Z,0.00
2022-10-25T00:25:11.596Z,0.00
2022-10-25T00:26:11.594Z,0.00
2022-10-25T00:27:11.594Z,0.00
2022-10-25T00:28:11.598Z,0.00
2022-10-25T00:29:11.711Z,0.00
2022-10-25T00:30:11.592Z,0.00
2022-10-25T00:31:11.595Z,0.00
2022-10-25T00:32:11.592Z,0.00
2022-10-25T00:33:11.595Z,0.00
2022-10-25T00:34:11.613Z,0.00
2022-10-25T00:35:11.593Z,0.00
2022-10-25T00:36:11.589Z,0.00
2022-10-25T00:37:11.593Z,0.00
2022-10-25T00:38:11.595Z,0.00
2022-10-25T00:39:11.596Z,0.00
2022-10-25T00:40:11.591Z,0.00
2022-10-25T00:41:11.596Z,0.00
2022-10-25T00:42:11.591Z,0.00
2022-10-25T00:43:11.593Z,0.00
2022-10-25T00:44:11.593Z,0.00
2022-10-25T00:45:11.590Z,0.00
2022-10-25T00:46:11.596Z,0.00
2022-10-25T00:47:11.584Z,0.00
2022-10-25T00:48:11.589Z,0.00
2022-10-25T00:49:11.596Z,0.00
2022-10-25T00:50:11.606Z,0.00
2022-10-25T00:51:11.587Z,0.00
2022-10-25T00:52:11.590Z,0.00
2022-10-25T00:53:11.585Z,0.00
2022-10-25T00:54:11.616Z,0.00
2022-10-25T00:55:11.595Z,0.00
2022-10-25T00:56:11.590Z,0.00
2022-10-25T00:57:11.591Z,0.00
2022-10-25T00:58:11.592Z,0.00
2022-10-25T00:59:11.586Z,0.00
2022-10-25T01:00:11.586Z,0.00
2022-10-25T01:01:11.608Z,0.00
2022-10-25T01:02:11.741Z,0.00
2022-10-25T01:03:11.588Z,0.00
2022-10-25T01:04:11.584Z,0.00
2022-10-25T01:05:11.587Z,0.00
2022-10-25T01:06:11.602Z,0.00
2022-10-25T01:07:11.588Z,0.00
2022-10-25T01:08:11.585Z,0.00
2022-10-25T01:09:11.582Z,0.00
2022-10-25T01:10:11.589Z,0.00
2022-10-25T01:11:11.625Z,0.00
2022-10-25T01:12:11.590Z,0.00
2022-10-25T01:13:11.588Z,0.00
2022-10-25T01:14:11.587Z,0.00
2022-10-25T01:15:11.583Z,0.00
2022-10-25T01:16:11.586Z,0.00
2022-10-25T01:17:11.586Z,0.00
2022-10-25T01:18:11.585Z,0.00
2022-10-25T01:19:11.584Z,0.00
2022-10-25T01:20:11.579Z,0.00
2022-10-25T01:21:11.578Z,0.00
2022-10-25T01:22:11.606Z,0.00
2022-10-25T01:23:11.583Z,0.00
2022-10-25T01:24:11.580Z,0.00
2022-10-25T01:25:11.582Z,0.00
2022-10-25T01:26:11.580Z,0.00
2022-10-25T01:27:11.580Z,0.00
2022-10-25T01:28:11.583Z,0.00
2022-10-25T01:29:11.578Z,0.00
2022-10-25T01:30:11.581Z,0.00
2022-10-25T01:31:11.583Z,0.00
2022-10-25T01:32:11.599Z,0.00
2022-10-25T01:33:11.579Z,0.00
2022-10-25T01:34:11.581Z,0.00
2022-10-25T01:35:11.577Z,0.00
2022-10-25T01:36:11.580Z,0.00
2022-10-25T01:37:11.579Z,0.00
2022-10-25T01:38:11.606Z,0.00
2022-10-25T01:39:11.578Z,0.00
2022-10-25T01:40:11.578Z,0.00
2022-10-25T01:41:11.575Z,0.00
2022-10-25T01:42:11.573Z,0.00
2022-10-25T01:43:11.578Z,0.00
2022-10-25T01:44:11.579Z,0.00
2022-10-25T01:45:11.581Z,0.00
2022-10-25T01:46:11.579Z,0.00
2022-10-25T01:47:11.576Z,0.00
2022-10-25T01:48:11.584Z,0.00
2022-10-25T01:49:11.577Z,0.00
2022-10-25T01:50:11.574Z,0.00
2022-10-25T01:51:11.572Z,0.00
2022-10-25T01:52:11.575Z,0.00
2022-10-25T01:53:11.574Z,0.00
2022-10-25T01:54:11.612Z,0.00
2022-10-25T01:55:11.578Z,0.00
2022-10-25T01:56:11.572Z,0.00
2022-10-25T01:57:11.576Z,0.00
2022-10-25T01:58:11.576Z,0.00
2022-10-25T01:59:11.573Z,0.00
2022-10-25T02:00:11.576Z,0.00
2022-10-25T02:01:11.733Z,0.00
2022-10-25T02:02:11.574Z,0.00
2022-10-25T02:03:11.571Z,0.00
2022-10-25T02:04:11.574Z,0.00
2022-10-25T02:05:11.570Z,0.00
2022-10-25T02:06:11.569Z,0.00
2022-10-25T02:07:11.572Z,0.00
2022-10-25T02:08:11.571Z,0.00
2022-10-25T02:09:11.569Z,0.00
2022-10-25T02:10:11.593Z,0.00
2022-10-25T02:11:11.564Z,0.00
2022-10-25T02:12:11.568Z,0.00
2022-10-25T02:13:11.568Z,0.00
2022-10-25T02:14:11.565Z,0.00
2022-10-25T02:15:11.571Z,0.00
2022-10-25T02:16:11.566Z,0.00
2022-10-25T02:17:11.567Z,0.00
2022-10-25T02:18:11.569Z,0.00
2022-10-25T02:19:11.577Z,0.00
2022-10-25T02:20:11.570Z,0.00
2022-10-25T02:21:11.571Z,0.00
2022-10-25T02:22:11.567Z,0.00
2022-10-25T02:23:11.563Z,0.00
2022-10-25T02:24:11.564Z,0.00
2022-10-25T02:25:11.567Z,0.00
2022-10-25T02:26:11.668Z,0.00
2022-10-25T02:27:11.566Z,0.00
2022-10-25T02:28:11.565Z,0.00
2022-10-25T02:29:11.564Z,0.00
2022-10-25T02:30:11.564Z,0.00
2022-10-25T02:31:11.563Z,0.00
2022-10-25T02:32:11.561Z,0.00
2022-10-25T02:33:11.564Z,0.00
2022-10-25T02:34:11.560Z,0.00
2022-10-25T02:35:14.670Z,0.00
2022-10-25T02:36:11.561Z,0.00
2022-10-25T02:37:11.562Z,0.00
2022-10-25T02:38:11.560Z,0.00
2022-10-25T02:39:11.562Z,0.00
2022-10-25T02:40:11.559Z,0.00
2022-10-25T02:41:11.559Z,0.00
2022-10-25T02:42:11.584Z,0.00
2022-10-25T02:43:11.560Z,0.00
2022-10-25T02:44:11.564Z,0.00
2022-10-25T02:45:11.562Z,0.00
2022-10-25T02:46:11.581Z,0.00
2022-10-25T02:47:11.560Z,0.00
2022-10-25T02:48:11.561Z,0.00
2022-10-25T02:49:11.559Z,0.00
2022-10-25T02:50:11.563Z,0.00
2022-10-25T02:51:11.555Z,0.00
2022-10-25T02:52:11.560Z,0.00
2022-10-25T02:53:11.557Z,0.00
2022-10-25T02:54:11.556Z,0.00
2022-10-25T02:55:11.558Z,0.00
2022-10-25T02:56:11.554Z,0.00
2022-10-25T02:57:11.557Z,0.00
2022-10-25T02:58:11.578Z,0.00
2022-10-25T02:59:11.555Z,0.00
2022-10-25T03:01:11.745Z,0.00
2022-10-25T03:02:11.556Z,0.00
2022-10-25T03:03:11.558Z,0.00
2022-10-25T03:04:11.562Z,0.00
2022-10-25T03:05:11.556Z,0.00
2022-10-25T03:06:11.552Z,0.00
2022-10-25T03:07:11.553Z,0.00
2022-10-25T03:08:11.558Z,0.00
2022-10-25T03:09:11.555Z,0.00
2022-10-25T03:10:11.552Z,0.00
2022-10-25T03:11:11.551Z,0.00
2022-10-25T03:12:11.557Z,0.00
2022-10-25T03:13:11.550Z,0.00
2022-10-25T03:14:11.590Z,0.00
2022-10-25T03:15:11.550Z,0.00
2022-10-25T03:16:11.558Z,0.00
2022-10-25T03:17:11.555Z,0.00
2022-10-25T03:18:11.550Z,0.00
2022-10-25T03:19:11.552Z,0.00
2022-10-25T03:20:11.550Z,0.00
2022-10-25T03:21:11.550Z,0.00
2022-10-25T03:22:11.552Z,0.00
2022-10-25T03:23:11.548Z,0.00
2022-10-25T03:24:11.551Z,0.00
2022-10-25T03:25:11.550Z,0.00
2022-10-25T03:26:11.546Z,0.00
2022-10-25T03:27:11.550Z,0.00
2022-10-25T03:28:11.542Z,0.00
2022-10-25T03:29:11.554Z,0.00
2022-10-25T03:30:11.574Z,0.00
2022-10-25T03:31:11.545Z,0.00
2022-10-25T03:32:11.549Z,0.00
2022-10-25T03:33:11.545Z,0.00
2022-10-25T03:34:11.545Z,0.00
2022-10-25T03:35:11.556Z,0.00
2022-10-25T03:36:11.549Z,0.00
2022-10-25T03:37:11.550Z,0.00
2022-10-25T03:38:11.546Z,0.00
2022-10-25T03:39:11.541Z,0.00
2022-10-25T03:40:11.548Z,0.00
2022-10-25T03:41:11.544Z,0.00
2022-10-25T03:42:11.549Z,0.00
2022-10-25T03:43:11.644Z,0.00
2022-10-25T03:44:11.543Z,0.00
2022-10-25T03:45:11.544Z,0.00
2022-10-25T03:46:11.567Z,0.00
2022-10-25T03:47:11.538Z,0.00
2022-10-25T03:48:11.542Z,0.00
2022-10-25T03:49:11.542Z,0.00
2022-10-25T03:50:11.543Z,0.00
2022-10-25T03:51:11.541Z,0.00
2022-10-25T03:52:11.544Z,0.00
2022-10-25T03:53:11.544Z,0.00
2022-10-25T03:54:11.543Z,0.00
2022-10-25T03:55:11.539Z,0.00
2022-10-25T03:56:11.538Z,0.00
2022-10-25T03:57:11.538Z,0.00
2022-10-25T03:58:11.543Z,0.00
2022-10-25T03:59:11.542Z,0.00
2022-10-25T04:00:11.542Z,0.00
2022-10-25T04:01:11.673Z,0.00
2022-10-25T04:02:11.790Z,0.00
2022-10-25T04:03:11.560Z,0.00
2022-10-25T04:04:11.539Z,0.00
2022-10-25T04:05:11.534Z,0.00
2022-10-25T04:06:11.538Z,0.00
2022-10-25T04:07:11.539Z,0.00
2022-10-25T04:08:11.536Z,0.00
2022-10-25T04:09:11.541Z,0.00
2022-10-25T04:10:11.538Z,0.00
2022-10-25T04:11:11.538Z,0.00
2022-10-25T04:12:11.538Z,0.00
2022-10-25T04:13:11.539Z,0.00
2022-10-25T04:14:11.536Z,0.00
2022-10-25T04:15:11.535Z,0.00
2022-10-25T04:16:13.014Z,0.00
2022-10-25T04:17:11.531Z,0.00
2022-10-25T04:18:11.561Z,0.00
2022-10-25T04:19:11.534Z,0.00
2022-10-25T04:20:11.531Z,0.00
2022-10-25T04:21:11.538Z,0.00
2022-10-25T04:22:11.542Z,0.00
2022-10-25T04:23:11.532Z,0.00
2022-10-25T04:24:11.532Z,0.00
2022-10-25T04:25:11.547Z,0.00
2022-10-25T04:26:11.532Z,0.00
2022-10-25T04:27:11.533Z,0.00
2022-10-25T04:28:11.528Z,0.00
2022-10-25T04:29:11.528Z,0.00
2022-10-25T04:30:11.532Z,0.00
2022-10-25T04:31:11.530Z,0.00
2022-10-25T04:32:11.568Z,0.00
2022-10-25T04:33:11.525Z,0.00
2022-10-25T04:34:11.573Z,0.00
2022-10-25T04:35:11.528Z,0.00
2022-10-25T04:36:11.526Z,0.00
2022-10-25T04:37:11.527Z,0.00
2022-10-25T04:38:11.527Z,0.00
2022-10-25T04:39:11.523Z,0.00
2022-10-25T04:40:11.525Z,0.00
2022-10-25T04:41:11.522Z,0.00
2022-10-25T04:42:11.532Z,0.00
2022-10-25T04:43:11.524Z,0.00
2022-10-25T04:44:11.527Z,0.00
2022-10-25T04:45:11.523Z,0.00
2022-10-25T04:46:11.520Z,0.00
2022-10-25T04:47:11.527Z,0.00
2022-10-25T04:48:11.525Z,0.00
2022-10-25T04:49:11.520Z,0.00
2022-10-25T04:50:11.540Z,0.00
2022-10-25T04:51:11.521Z,0.00
2022-10-25T04:52:11.528Z,0.00
2022-10-25T04:53:11.522Z,0.00
2022-10-25T04:54:11.522Z,0.00
2022-10-25T04:55:11.518Z,0.00
2022-10-25T04:56:11.519Z,0.00
2022-10-25T04:57:11.520Z,0.00
2022-10-25T04:58:11.518Z,0.00
2022-10-25T04:59:11.514Z,0.00
2022-10-25T05:00:11.521Z,0.00
2022-10-25T05:01:11.568Z,0.00
2022-10-25T05:02:11.515Z,0.00
2022-10-25T05:03:13.275Z,0.00
2022-10-25T05:04:11.517Z,0.00
2022-10-25T05:05:11.515Z,0.00
2022-10-25T05:06:11.536Z,0.00
2022-10-25T05:07:11.521Z,0.00
2022-10-25T05:08:11.517Z,0.00
2022-10-25T05:09:11.514Z,0.00
2022-10-25T05:10:11.510Z,0.00
2022-10-25T05:11:11.518Z,0.00
2022-10-25T05:12:11.512Z,0.00
2022-10-25T05:13:11.514Z,0.00
2022-10-25T05:14:11.514Z,0.00
2022-10-25T05:15:11.509Z,0.00
2022-10-25T05:16:11.511Z,0.00
2022-10-25T05:17:11.514Z,0.00
2022-10-25T05:18:11.508Z,0.00
2022-10-25T05:19:11.507Z,0.00
2022-10-25T05:20:11.509Z,0.00
2022-10-25T05:21:11.508Z,0.00
2022-10-25T05:22:11.529Z,0.00
2022-10-25T05:23:11.508Z,0.00
2022-10-25T05:24:11.508Z,0.00
2022-10-25T05:25:11.511Z,0.00
2022-10-25T05:26:11.507Z,0.00
2022-10-25T05:27:11.503Z,0.00
2022-10-25T05:28:11.511Z,0.00
2022-10-25T05:29:11.503Z,0.00
2022-10-25T05:30:11.509Z,0.00
2022-10-25T05:31:11.504Z,0.00
2022-10-25T05:32:11.501Z,0.00
2022-10-25T05:33:11.505Z,0.00
2022-10-25T05:34:11.501Z,0.00
2022-10-25T05:35:11.504Z,0.00
2022-10-25T05:36:11.508Z,0.00
2022-10-25T05:37:11.501Z,0.00
2022-10-25T05:38:11.531Z,0.00
2022-10-25T05:39:11.503Z,0.00
2022-10-25T05:40:11.505Z,0.00
2022-10-25T05:41:11.507Z,0.00
2022-10-25T05:42:11.506Z,0.00
2022-10-25T05:43:11.497Z,0.00
2022-10-25T05:44:11.504Z,0.00
2022-10-25T05:45:11.502Z,5.63
2022-10-25T05:46:11.496Z,5.63
2022-10-25T05:47:11.497Z,5.63
2022-10-25T05:48:11.498Z,5.63
2022-10-25T05:49:11.500Z,5.63
2022-10-25T05:50:11.499Z,5.63
2022-10-25T05:51:28.796Z,5.63
2022-10-25T05:52:11.493Z,11.25
2022-10-25T05:53:11.494Z,11.25
2022-10-25T05:54:11.529Z,11.25
2022-10-25T05:55:11.493Z,11.25
2022-10-25T05:56:11.496Z,11.25
2022-10-25T05:57:11.500Z,11.25
2022-10-25T05:58:11.497Z,11.25
2022-10-25T05:59:11.493Z,11.25
2022-10-25T06:00:11.497Z,11.25
2022-10-25T06:01:11.590Z,11.25
2022-10-25T06:02:11.587Z,11.25
2022-10-25T06:03:11.490Z,11.25
2022-10-25T06:04:11.491Z,11.25
2022-10-25T06:05:11.489Z,11.25
2022-10-25T06:06:11.496Z,11.25
2022-10-25T06:07:11.488Z,11.25
2022-10-25T06:08:11.488Z,11.25
2022-10-25T06:09:11.490Z,16.88
2022-10-25T06:10:11.509Z,16.88
2022-10-25T06:11:11.488Z,16.88
2022-10-25T06:12:11.489Z,16.88
2022-10-25T06:13:11.491Z,22.50
2022-10-25T06:14:11.489Z,22.50
2022-10-25T06:15:11.488Z,22.50
2022-10-25T06:16:11.486Z,28.13
2022-10-25T06:17:11.484Z,28.13
2022-10-25T06:18:11.483Z,28.13
2022-10-25T06:19:11.484Z,28.13
2022-10-25T06:20:11.484Z,33.75
2022-10-25T06:21:11.481Z,39.38
2022-10-25T06:22:11.485Z,45.00
2022-10-25T06:23:11.484Z,45.00
2022-10-25T06:24:11.485Z,45.00
2022-10-25T06:25:11.482Z,56.25
2022-10-25T06:26:11.496Z,61.88
2022-10-25T06:27:11.480Z,61.88
2022-10-25T06:28:11.478Z,73.13
2022-10-25T06:29:11.481Z,67.50
2022-10-25T06:30:11.478Z,56.25
2022-10-25T06:31:11.478Z,56.25
2022-10-25T06:32:11.478Z,56.25
2022-10-25T06:33:11.477Z,61.88
2022-10-25T06:34:11.479Z,67.50
2022-10-25T06:35:11.478Z,73.13
2022-10-25T06:36:11.477Z,78.75
2022-10-25T06:37:11.470Z,78.75
2022-10-25T06:38:11.474Z,78.75
2022-10-25T06:39:11.472Z,73.13
2022-10-25T06:40:11.531Z,73.13
2022-10-25T06:41:11.470Z,78.75
2022-10-25T06:42:11.498Z,90.00
2022-10-25T06:43:11.471Z,90.00
2022-10-25T06:44:11.472Z,84.38
2022-10-25T06:45:11.472Z,90.00
2022-10-25T06:46:11.468Z,78.75
2022-10-25T06:47:17.337Z,67.50
2022-10-25T06:48:11.469Z,61.88
2022-10-25T06:49:11.470Z,61.88
2022-10-25T06:50:11.463Z,67.50
2022-10-25T06:51:11.473Z,67.50
2022-10-25T06:52:11.469Z,56.25
2022-10-25T06:53:11.467Z,50.63
2022-10-25T06:54:11.468Z,61.88
2022-10-25T06:55:11.467Z,67.50
2022-10-25T06:56:14.462Z,73.13
2022-10-25T06:57:11.467Z,84.38
2022-10-25T06:58:11.484Z,95.63
2022-10-25T06:59:11.464Z,90.00
2022-10-25T07:00:11.467Z,106.88
2022-10-25T07:01:11.647Z,95.63
2022-10-25T07:02:11.617Z,101.25
2022-10-25T07:03:11.467Z,123.75
2022-10-25T07:04:11.466Z,112.50
2022-10-25T07:05:11.480Z,106.88
2022-10-25T07:06:11.466Z,129.38
2022-10-25T07:07:11.460Z,146.25
2022-10-25T07:08:11.459Z,157.50
2022-10-25T07:09:11.460Z,129.38
2022-10-25T07:10:11.464Z,129.38
2022-10-25T07:11:11.462Z,95.63
2022-10-25T07:12:12.728Z,73.13
2022-10-25T07:13:11.461Z,123.75
2022-10-25T07:14:11.480Z,180.00
2022-10-25T07:15:11.485Z,163.13
2022-10-25T07:16:11.467Z,146.25
2022-10-25T07:17:11.459Z,163.13
2022-10-25T07:18:11.458Z,151.88
2022-10-25T07:19:11.453Z,129.38
2022-10-25T07:20:11.455Z,106.88
2022-10-25T07:21:11.460Z,106.88
2022-10-25T07:22:11.452Z,123.75
2022-10-25T07:23:11.462Z,146.25
2022-10-25T07:24:11.459Z,157.50
2022-10-25T07:25:11.457Z,168.75
2022-10-25T07:26:11.454Z,185.63
2022-10-25T07:27:11.450Z,180.00
2022-10-25T07:28:11.456Z,174.38
2022-10-25T07:29:11.450Z,185.63
2022-10-25T07:30:11.475Z,202.50
2022-10-25T07:31:11.459Z,241.88
2022-10-25T07:32:11.452Z,270.00
2022-10-25T07:33:11.453Z,275.63
2022-10-25T07:34:11.447Z,275.63
2022-10-25T07:35:11.448Z,264.38
2022-10-25T07:36:12.042Z,264.38
2022-10-25T07:37:11.447Z,264.38
2022-10-25T07:38:11.450Z,258.75
2022-10-25T07:39:11.448Z,253.13
2022-10-25T07:40:11.452Z,258.75
2022-10-25T07:41:11.451Z,253.13
2022-10-25T07:42:11.447Z,253.13
2022-10-25T07:43:11.450Z,230.63
2022-10-25T07:44:16.048Z,202.50
2022-10-25T07:45:11.455Z,202.50
2022-10-25T07:46:11.466Z,241.88
2022-10-25T07:47:11.445Z,264.38
2022-10-25T07:48:11.450Z,286.88
2022-10-25T07:49:11.444Z,371.25
2022-10-25T07:50:11.446Z,478.13
2022-10-25T07:51:11.453Z,511.88
2022-10-25T07:52:11.441Z,388.13
2022-10-25T07:53:11.457Z,253.13
2022-10-25T07:54:11.449Z,208.13
2022-10-25T07:55:11.443Z,174.38
2022-10-25T07:56:11.449Z,146.25
2022-10-25T07:57:11.446Z,151.88
2022-10-25T07:58:11.446Z,196.88
2022-10-25T07:59:11.445Z,247.50
2022-10-25T08:00:11.441Z,247.50
2022-10-25T08:01:11.538Z,264.38
2022-10-25T08:02:11.458Z,315.00
2022-10-25T08:03:11.477Z,286.88
2022-10-25T08:04:11.440Z,309.38
2022-10-25T08:05:11.441Z,371.25
2022-10-25T08:06:11.443Z,455.63
2022-10-25T08:07:11.446Z,511.88
2022-10-25T08:08:11.442Z,545.63
2022-10-25T08:09:14.874Z,540.00
2022-10-25T08:10:11.437Z,534.38
2022-10-25T08:11:11.441Z,517.50
2022-10-25T08:12:11.440Z,528.75
2022-10-25T08:13:11.438Z,483.75
2022-10-25T08:14:11.469Z,483.75
2022-10-25T08:15:11.439Z,450.00
2022-10-25T08:16:11.438Z,393.75
2022-10-25T08:17:11.463Z,303.75
2022-10-25T08:18:11.464Z,213.75
2022-10-25T08:19:11.438Z,253.13
2022-10-25T08:20:11.443Z,264.38
2022-10-25T08:21:11.445Z,264.38
2022-10-25T08:22:11.441Z,286.88
2022-10-25T08:23:11.440Z,320.63
2022-10-25T08:24:11.504Z,331.88
2022-10-25T08:25:11.449Z,258.75
2022-10-25T08:26:11.441Z,264.38
2022-10-25T08:27:11.444Z,298.13
2022-10-25T08:28:11.435Z,298.13
2022-10-25T08:29:11.449Z,286.88
2022-10-25T08:30:11.444Z,298.13
2022-10-25T08:31:11.445Z,337.50
2022-10-25T08:32:11.444Z,326.25
2022-10-25T08:33:11.992Z,393.75
2022-10-25T08:35:11.435Z,303.75
2022-10-25T08:36:11.440Z,236.25
2022-10-25T08:37:11.446Z,219.38
2022-10-25T08:38:11.449Z,241.88
2022-10-25T08:39:11.458Z,275.63
2022-10-25T08:40:11.439Z,303.75
2022-10-25T08:41:11.447Z,399.38
2022-10-25T08:42:11.443Z,399.38
2022-10-25T08:43:11.439Z,292.50
2022-10-25T08:44:11.458Z,247.50
2022-10-25T08:45:11.442Z,191.25
2022-10-25T08:46:11.442Z,151.88
2022-10-25T08:47:11.436Z,174.38
2022-10-25T08:48:11.451Z,185.63
2022-10-25T08:49:11.441Z,208.13
2022-10-25T08:50:11.467Z,208.13
2022-10-25T08:51:11.434Z,264.38
2022-10-25T08:52:15.256Z,303.75
2022-10-25T08:53:11.438Z,371.25
2022-10-25T08:54:11.435Z,500.63
2022-10-25T08:55:11.436Z,517.50
2022-10-25T08:56:16.733Z,393.75
2022-10-25T08:57:15.389Z,365.63
2022-10-25T08:58:11.434Z,348.75
2022-10-25T08:59:11.433Z,365.63
2022-10-25T09:00:11.434Z,410.63
2022-10-25T09:01:11.549Z,478.13
2022-10-25T09:02:11.608Z,483.75
2022-10-25T09:03:15.203Z,478.13
2022-10-25T09:04:11.432Z,393.75
2022-10-25T09:05:11.441Z,270.00
2022-10-25T09:06:11.451Z,365.63
2022-10-25T09:07:11.447Z,450.00
2022-10-25T09:08:11.443Z,506.25
2022-10-25T09:09:11.441Z,573.75
2022-10-25T09:10:11.434Z,950.63
2022-10-25T09:11:11.434Z,669.38
2022-10-25T09:12:11.435Z,697.50
2022-10-25T09:13:11.435Z,736.88
2022-10-25T09:14:11.428Z,703.13
2022-10-25T09:15:11.439Z,579.38
2022-10-25T09:16:11.438Z,579.38
2022-10-25T09:17:11.432Z,669.38
2022-10-25T09:18:11.438Z,635.63
2022-10-25T09:19:11.432Z,697.50
2022-10-25T09:20:11.433Z,911.25
2022-10-25T09:21:14.839Z,1091.25
2022-10-25T09:22:11.463Z,787.50
2022-10-25T09:23:11.524Z,849.38
2022-10-25T09:24:11.435Z,1248.75
2022-10-25T09:25:11.435Z,1271.25
2022-10-25T09:26:11.433Z,1153.13
2022-10-25T09:27:11.430Z,624.38
2022-10-25T09:28:11.433Z,556.88
2022-10-25T09:29:11.435Z,343.13
2022-10-25T09:30:11.438Z,213.75
2022-10-25T09:31:11.434Z,213.75
2022-10-25T09:32:11.438Z,270.00
2022-10-25T09:33:11.510Z,365.63
2022-10-25T09:34:11.428Z,354.38
2022-10-25T09:35:11.433Z,298.13
2022-10-25T09:36:11.435Z,241.88
2022-10-25T09:37:11.433Z,343.13
2022-10-25T09:38:11.463Z,326.25
2022-10-25T09:39:15.677Z,247.50
2022-10-25T09:40:11.441Z,281.25
2022-10-25T09:41:11.438Z,343.13
2022-10-25T09:42:11.439Z,405.00
2022-10-25T09:43:11.440Z,438.75
2022-10-25T09:44:11.433Z,410.63
2022-10-25T09:45:11.433Z,393.75
2022-10-25T09:46:11.434Z,365.63
2022-10-25T09:47:11.442Z,376.88
2022-10-25T09:48:11.442Z,410.63
2022-10-25T09:49:11.437Z,450.00
2022-10-25T09:50:11.438Z,523.13
2022-10-25T09:51:11.432Z,540.00
2022-10-25T09:52:11.436Z,551.25
2022-10-25T09:53:11.439Z,573.75
2022-10-25T09:54:11.466Z,517.50
2022-10-25T09:55:11.435Z,500.63
2022-10-25T09:56:11.436Z,579.38
2022-10-25T09:57:11.439Z,669.38
2022-10-25T09:58:11.435Z,1074.38
2022-10-25T09:59:11.433Z,1445.63
2022-10-25T10:00:11.438Z,1445.63
2022-10-25T10:01:11.587Z,1777.50
2022-10-25T10:02:11.567Z,1777.50
2022-10-25T10:03:11.447Z,1816.88
2022-10-25T10:04:11.438Z,1884.38
2022-10-25T10:05:11.436Z,1794.38
2022-10-25T10:06:11.437Z,1406.25
2022-10-25T10:07:11.435Z,1119.38
2022-10-25T10:08:11.444Z,838.13
2022-10-25T10:09:11.436Z,821.25
2022-10-25T10:10:11.465Z,781.88
2022-10-25T10:11:11.438Z,798.75
2022-10-25T10:12:11.443Z,883.13
2022-10-25T10:13:11.442Z,585.00
2022-10-25T10:14:11.439Z,540.00
2022-10-25T10:15:11.441Z,365.63
2022-10-25T10:16:11.447Z,343.13
2022-10-25T10:17:11.445Z,258.75
2022-10-25T10:18:11.449Z,247.50
2022-10-25T10:19:11.443Z,219.38
2022-10-25T10:20:11.446Z,253.13
2022-10-25T10:21:11.446Z,236.25
2022-10-25T10:22:11.446Z,309.38
2022-10-25T10:23:11.452Z,320.63
2022-10-25T10:24:11.447Z,331.88
2022-10-25T10:25:11.457Z,230.63
2022-10-25T10:26:11.474Z,275.63
2022-10-25T10:27:11.460Z,202.50
2022-10-25T10:28:11.450Z,180.00
2022-10-25T10:29:15.358Z,163.13
2022-10-25T10:30:11.453Z,213.75
2022-10-25T10:31:11.451Z,230.63
2022-10-25T10:32:11.467Z,258.75
2022-10-25T10:33:11.450Z,388.13
2022-10-25T10:34:11.453Z,489.38
2022-10-25T10:35:11.453Z,331.88
2022-10-25T10:36:11.459Z,382.50
2022-10-25T10:37:11.455Z,450.00
2022-10-25T10:38:11.457Z,393.75
2022-10-25T10:39:11.460Z,275.63
2022-10-25T10:40:11.463Z,180.00
2022-10-25T10:41:11.458Z,174.38
2022-10-25T10:42:14.920Z,264.38
2022-10-25T10:43:11.456Z,309.38
2022-10-25T10:44:11.463Z,225.00
2022-10-25T10:45:11.456Z,196.88
2022-10-25T10:46:11.467Z,225.00
2022-10-25T10:47:11.457Z,208.13
2022-10-25T10:48:11.462Z,185.63
2022-10-25T10:49:11.461Z,270.00
2022-10-25T10:50:11.466Z,376.88
2022-10-25T10:51:25.238Z,523.13
2022-10-25T10:52:11.493Z,427.50
2022-10-25T10:53:11.459Z,450.00
2022-10-25T10:54:11.462Z,534.38
2022-10-25T10:55:11.459Z,281.25
2022-10-25T10:56:11.462Z,258.75
2022-10-25T10:57:11.466Z,264.38
2022-10-25T10:58:11.484Z,388.13
2022-10-25T10:59:11.462Z,388.13
2022-10-25T11:00:11.500Z,967.50
2022-10-25T11:01:11.558Z,427.50
2022-10-25T11:02:11.651Z,450.00
2022-10-25T11:03:11.467Z,410.63
2022-10-25T11:04:11.471Z,247.50
2022-10-25T11:05:11.471Z,191.25
2022-10-25T11:06:11.462Z,180.00
2022-10-25T11:07:11.468Z,230.63
2022-10-25T11:08:11.464Z,185.63
2022-10-25T11:09:11.471Z,213.75
2022-10-25T11:10:11.469Z,275.63
2022-10-25T11:11:11.473Z,315.00
2022-10-25T11:12:11.472Z,399.38
2022-10-25T11:13:11.469Z,382.50
2022-10-25T11:14:11.589Z,354.38
2022-10-25T11:15:11.468Z,281.25
2022-10-25T11:16:11.467Z,253.13
2022-10-25T11:17:11.467Z,298.13
2022-10-25T11:18:11.470Z,388.13
2022-10-25T11:19:11.478Z,433.13
2022-10-25T11:20:11.470Z,528.75
2022-10-25T11:21:11.480Z,646.88
2022-10-25T11:22:11.484Z,1125.00
2022-10-25T11:23:11.471Z,652.50
2022-10-25T11:24:11.476Z,618.75
2022-10-25T11:25:11.469Z,804.38
2022-10-25T11:26:11.471Z,1018.13
2022-10-25T11:27:11.478Z,2030.63
2022-10-25T11:28:11.474Z,978.75
2022-10-25T11:29:11.474Z,1788.75
2022-10-25T11:30:11.596Z,1040.63
2022-10-25T11:31:11.478Z,883.13
2022-10-25T11:32:11.473Z,1327.50
2022-10-25T11:33:11.485Z,843.75
2022-10-25T11:34:11.486Z,2345.63
2022-10-25T11:35:11.475Z,3673.13
2022-10-25T11:36:11.479Z,765.00
2022-10-25T11:37:11.480Z,708.75
2022-10-25T11:38:11.478Z,1265.63
2022-10-25T11:39:11.484Z,2182.50
2022-10-25T11:40:11.485Z,905.63
2022-10-25T11:41:11.492Z,736.88
2022-10-25T11:42:11.527Z,1321.88
2022-10-25T11:43:11.486Z,590.63
2022-10-25T11:44:11.493Z,438.75
2022-10-25T11:45:11.486Z,500.63
2022-10-25T11:46:11.607Z,635.63
2022-10-25T11:47:11.489Z,506.25
2022-10-25T11:48:11.492Z,416.25
2022-10-25T11:49:11.495Z,365.63
2022-10-25T11:50:11.504Z,534.38
2022-10-25T11:51:11.501Z,573.75
2022-10-25T11:52:11.586Z,517.50
2022-10-25T11:53:11.504Z,579.38
2022-10-25T11:54:11.507Z,393.75
2022-10-25T11:55:11.513Z,427.50
2022-10-25T11:56:11.509Z,866.25
2022-10-25T11:57:11.504Z,573.75
2022-10-25T11:58:11.513Z,742.50
2022-10-25T11:59:11.520Z,601.88
2022-10-25T12:00:11.515Z,573.75
2022-10-25T12:01:11.647Z,540.00
2022-10-25T12:02:11.631Z,607.50
2022-10-25T12:03:11.606Z,568.13
2022-10-25T12:04:11.522Z,641.25
2022-10-25T12:05:11.519Z,545.63
2022-10-25T12:06:11.521Z,618.75
2022-10-25T12:07:11.523Z,793.13
2022-10-25T12:08:11.526Z,838.13
2022-10-25T12:09:11.535Z,815.63
2022-10-25T12:10:11.603Z,641.25
2022-10-25T12:11:13.818Z,517.50
2022-10-25T12:12:11.533Z,472.50
2022-10-25T12:13:11.531Z,416.25
2022-10-25T12:14:11.530Z,315.00
2022-10-25T12:15:11.539Z,444.38
2022-10-25T12:16:11.536Z,551.25
2022-10-25T12:17:11.538Z,511.88
2022-10-25T12:18:11.656Z,556.88
2022-10-25T12:19:11.547Z,545.63
2022-10-25T12:20:11.547Z,455.63
2022-10-25T12:21:11.543Z,343.13
2022-10-25T12:22:11.552Z,371.25
2022-10-25T12:23:11.545Z,337.50
2022-10-25T12:24:11.551Z,309.38
2022-10-25T12:25:11.550Z,326.25
2022-10-25T12:26:11.550Z,213.75
2022-10-25T12:27:11.551Z,180.00
2022-10-25T12:28:11.561Z,208.13
2022-10-25T12:29:11.562Z,292.50
2022-10-25T12:30:11.558Z,371.25
2022-10-25T12:31:11.560Z,427.50
2022-10-25T12:32:11.563Z,399.38
2022-10-25T12:33:11.561Z,354.38
2022-10-25T12:34:11.682Z,326.25
2022-10-25T12:35:11.577Z,337.50
2022-10-25T12:36:11.569Z,382.50
2022-10-25T12:37:11.569Z,410.63
2022-10-25T12:38:11.569Z,405.00
2022-10-25T12:39:11.571Z,405.00
2022-10-25T12:40:11.607Z,399.38
2022-10-25T12:41:11.571Z,562.50
2022-10-25T12:42:11.577Z,568.13
2022-10-25T12:43:11.576Z,489.38
2022-10-25T12:44:11.580Z,405.00
2022-10-25T12:45:11.575Z,438.75
2022-10-25T12:46:11.577Z,511.88
2022-10-25T12:47:11.581Z,613.13
2022-10-25T12:48:11.577Z,652.50
2022-10-25T12:49:11.580Z,573.75
2022-10-25T12:50:11.776Z,489.38
2022-10-25T12:51:14.028Z,483.75
2022-10-25T12:52:11.584Z,450.00
2022-10-25T12:53:11.590Z,421.88